Airport Information

KBFI - Boeing Fld King Co Intl Airport

KBFI 180453Z 15004KT 10SM CLR 11/06 A3010 RMK AO2 SLP191 T01060061


  • General Information

  • Coordinates: N 47°31'48"/ W 122°18'7"
  • Location: N/A
  • Surveyed Elevation: 21 MSL

Operations

Flow Name Active Runways Conditions
North Flow Landing: 32L/32R
Departing: 32L/32R
Wind Direction: 221-039°
Wind Speed: ≥6
South Flow Landing: 14R/14L
Departing: 14R/14L
Wind Direction: 040-220°
Wind Speed: <5 or CALM

Green background denotes normal operations.


Common Frequencies

Callsign Frequency Position Name
BFI_DEL 132.400 Boeing Delivery
BFI_GND 121.900 Boeing Ground
BFR_TWR 118.300 Boeing Tower

More at the Document Center


Charts

Name Description Cycle
CBAIN ONE Page 1 1811
KENT EIGHT Page 1 | Page 2 1811
NEEDLE ONE Page 1 1811
NRVNA ONE Page 1 1811
Name Description Cycle
CHINS THREE Page 1 | Page 2 1811
EPHRATA EIGHT Page 1 1811
GLASR ONE Page 1 | Page 2 1811
JAWBN SIX Page 1 1811
OLYMPIA TWO Page 1 | Page 2 1811